Wisconsin Dells, Wisconsin
Current Conditions -  °F | °C
As of 8:55 PM on Sunday 23 Nov 2014 (Local Time) from KDLL Reporting Station
Haze Haze  
Wind Chill: 46°   Ceiling: 600
Heat Index: 46°   Visibility: 3mi
Dew Point: 45°   Wind: 0mph
Humidity: 96%   Direction: NA
Pressure: 29.23"   Gusts: NA
Location:  43.63°N, 89.77°W
Report Text: KDLL 240255Z AUTO 00000KT 3SM BR OVC006 08/07 A2923 RMK AO2 60003 T00760070
Loading
Personal Weather Stations






























Interactive Weather Map New forecast layout! Learn more

10-Day Weather Forecast

Advertisements
Track Severe Weather on mobile